KBMG/BMG METAR and TAF weather

Enter ICAO airport designator
Station Type Date Time Source
KBMG METAR 2021/03/06 04:53 UTC NOAA

KBMG 060453Z AUTO 33003KT 10SM CLR 00/M06 A3030 RMK AO2 SLP266 T00001056 401001033


Station Type Date Time Source
KBMG Decoded METAR 2021/03/06 04:53 UTC NOAA

MONROE COUNTY AIRPORT, IN, United States (KBMG) 39-09N 086-37W 257M
Mar 05, 2021 - 11:53 PM EST / 2021.03.06 0453 UTC
Wind: from the NNW (330 degrees) at 3 MPH (3 KT):0
Visibility: 10 mile(s):0
Sky conditions: clear
Temperature: 32.0 F (0.0 C)
Dew Point: 21.9 F (-5.6 C)
Relative Humidity: 65%
Pressure (altimeter): 30.3 in. Hg (1026 hPa)
ob: KBMG 060453Z AUTO 33003KT 10SM CLR 00/M06 A3030 RMK AO2 SLP266 T00001056 401001033
cycle: 5

Station Type Date Time Source
KBMG TAF 2021/03/05 18:24 UTC NOAA

TAF KBMG 051723Z 0518/0618 04009KT P6SM FEW250
FM052000 01009KT P6SM FEW250

Example: see airport list